Titania — 9HA2272 — position and weather

sailwx.info

Track history (hours):
 
Tides and Currents Weather Stations Pressure Air Temp Water Temp Dewpoint Dewpoint Depression Visibility Wind Speed Wind Dir Waves Ship Positions

Titania

Last reported at 2018-Aug-16 20:00 UTC. Time now 2018-Aug-16 20:18 UTC.
Position N 50°53' W 001°24'.

Length 231 m; draft 9.8 m.

Type: Cargo ship. MMSI: 248225000.

Date/timePositionNaut miles runAvg speedWind from/ knotsBaromVisibWave heightAir tempDewpointWater temp
2018-Aug-16 20:00N 50°53' W 001°24'0 0.0
2018-Aug-16 19:30N 50°53' W 001°24'0 0.0
2018-Aug-16 18:59N 50°53' W 001°24'0 0.0
2018-Aug-16 18:29N 50°53' W 001°24'0 0.0
2018-Aug-16 17:59N 50°53' W 001°24'0 0.0
2018-Aug-16 17:29N 50°53' W 001°24'0 0.0
2018-Aug-16 16:59N 50°53' W 001°24'0 0.0
2018-Aug-16 16:26N 50°53' W 001°24'0 0.0
2018-Aug-16 15:59N 50°53' W 001°24'0 0.0
2018-Aug-16 15:29N 50°53' W 001°24'0 0.0
2018-Aug-16 14:59N 50°53' W 001°24'0 0.0
2018-Aug-16 14:30N 50°53' W 001°24'0 0.0
2018-Aug-16 13:59N 50°53' W 001°24'0 0.0
2018-Aug-16 13:29N 50°53' W 001°24'0 0.0
2018-Aug-16 12:59N 50°53' W 001°24'0 0.0
2018-Aug-16 12:29N 50°53' W 001°24'0 0.0
2018-Aug-16 11:59N 50°53' W 001°24'0 0.0
2018-Aug-16 11:29N 50°53' W 001°24'0 0.0
2018-Aug-16 10:59N 50°53' W 001°24'0 0.0
2018-Aug-16 10:29N 50°53' W 001°24'0 0.0
2018-Aug-16 09:59N 50°53' W 001°24'0 0.0
2018-Aug-16 09:29N 50°53' W 001°24'0 0.0
2018-Aug-16 08:59N 50°53' W 001°24'0 0.0
2018-Aug-16 08:29N 50°53' W 001°24'0 0.0
2018-Aug-16 07:59N 50°53' W 001°24'0 0.0
2018-Aug-16 07:29N 50°53' W 001°24'0 0.0
2018-Aug-16 06:59N 50°53' W 001°24'0 0.0
2018-Aug-16 06:29N 50°53' W 001°24'0 0.0
2018-Aug-16 05:59N 50°53' W 001°24'0 0.0
2018-Aug-16 05:29N 50°53' W 001°24'0 0.0
2018-Aug-16 04:59N 50°53' W 001°24'0 0.0
2018-Aug-16 04:29N 50°53' W 001°24'1 1.3
2018-Aug-16 04:00N 50°53' W 001°23'4 8.1
2018-Aug-16 03:31N 50°50' W 001°19'4 8.9
2018-Aug-16 03:00N 50°46' W 001°15'816.7
2018-Aug-16 02:30N 50°44' W 001°02'611.6
2018-Aug-16 02:00N 50°39' W 000°56'4 7.1
2018-Aug-16 01:30N 50°36' W 000°54'510.9
2018-Aug-16 01:00N 50°31' W 000°51'910.1
2018-Aug-16 00:05N 50°22' W 000°45'110.0
2018-Aug-15 23:59N 50°21' W 000°45'510.3
2018-Aug-15 23:27N 50°16' W 000°42'510.2
2018-Aug-15 22:59N 50°12' W 000°39'510.3
2018-Aug-15 22:30N 50°07' W 000°37'510.2
2018-Aug-15 22:00N 50°02' W 000°34'510.3
2018-Aug-15 21:30N 49°57' W 000°31'510.2
2018-Aug-15 21:00N 49°52' W 000°30'5 9.8
2018-Aug-15 20:30N 49°47' W 000°31'3 6.4
2018-Aug-15 20:00N 49°45' W 000°33'3 5.5
2018-Aug-15 19:30N 49°42' W 000°35'2 4.0
2018-Aug-15 19:00N 49°40' W 000°33'1 2.2
2018-Aug-15 18:30N 49°40' W 000°32'1 2.9
2018-Aug-15 18:01N 49°39' W 000°30'1 2.9
2018-Aug-15 17:30N 49°38' W 000°28'1 2.7
2018-Aug-15 17:00N 49°38' W 000°26'1 2.1
2018-Aug-15 16:30N 49°37' W 000°25'1 1.8
2018-Aug-15 16:01N 49°36' W 000°24'1 2.7
2018-Aug-15 15:31N 49°36' W 000°22'2 3.1
2018-Aug-15 15:00N 49°35' W 000°20'611.5
2018-Aug-15 14:30N 49°33' W 000°12'611.6
2018-Aug-15 14:00N 49°31' W 000°03'714.2
2018-Aug-15 13:30N 49°29' E 000°07'2 4.3
2018-Aug-15 13:00N 49°29' E 000°10'0 0.0
2018-Aug-15 12:30N 49°29' E 000°10'0 0.0
2018-Aug-15 12:00N 49°29' E 000°10'1 2.3
2018-Aug-15 11:30N 49°28' E 000°12'0 0.8
2018-Aug-15 11:00N 49°28' E 000°13'0 0.0
2018-Aug-15 10:30N 49°28' E 000°13'0 0.0
2018-Aug-15 10:00N 49°28' E 000°13'0 0.0
2018-Aug-15 09:30N 49°28' E 000°13'0 0.0
2018-Aug-15 09:00N 49°28' E 000°13'0 0.0
2018-Aug-15 08:30N 49°28' E 000°13'0 0.0
2018-Aug-15 08:00N 49°28' E 000°13'0 0.0
2018-Aug-15 07:30N 49°28' E 000°13'0 0.0
2018-Aug-15 07:00N 49°28' E 000°13'0 0.0
2018-Aug-15 06:30N 49°28' E 000°13'0 0.0
2018-Aug-15 06:00N 49°28' E 000°13'0 0.0
2018-Aug-15 05:30N 49°28' E 000°13'0 0.0
2018-Aug-15 05:00N 49°28' E 000°13'0 0.0
2018-Aug-15 04:30N 49°28' E 000°13'0 0.0
2018-Aug-15 04:00N 49°28' E 000°13'0 0.0
2018-Aug-15 03:30N 49°28' E 000°13'0 0.0
2018-Aug-15 03:00N 49°28' E 000°13'0 0.0
2018-Aug-15 02:30N 49°28' E 000°13'0 0.0
2018-Aug-15 02:00N 49°28' E 000°13'0 0.0
2018-Aug-15 01:30N 49°28' E 000°13'0 0.0
2018-Aug-15 01:00N 49°28' E 000°13'0 0.0
2018-Aug-15 00:30N 49°28' E 000°13'0 0.0
2018-Aug-15 00:00N 49°28' E 000°13'0 0.0
2018-Aug-14 23:30N 49°28' E 000°13'0 0.0
2018-Aug-14 23:00N 49°28' E 000°13'0 0.0
2018-Aug-14 22:30N 49°28' E 000°13'0 0.0
2018-Aug-14 22:00N 49°28' E 000°13'0 0.0
2018-Aug-14 21:30N 49°28' E 000°13'0 0.0
2018-Aug-14 21:00N 49°28' E 000°13'0 0.0
2018-Aug-14 20:30N 49°28' E 000°13'0 0.0
2018-Aug-14 20:00N 49°28' E 000°13'0 0.0
2018-Aug-14 19:30N 49°28' E 000°13'0 0.0
2018-Aug-14 19:00N 49°28' E 000°13'0 0.0
2018-Aug-14 18:30N 49°28' E 000°13'0 0.0
2018-Aug-14 18:00N 49°28' E 000°13'0 0.0
2018-Aug-14 17:30N 49°28' E 000°13'0 0.0
2018-Aug-14 17:00N 49°28' E 000°13'0 0.0
2018-Aug-14 16:30N 49°28' E 000°13'0 0.0
2018-Aug-14 16:00N 49°28' E 000°13'0 0.0
2018-Aug-14 15:30N 49°28' E 000°13'0 0.0
2018-Aug-14 15:00N 49°28' E 000°13'0 0.0
2018-Aug-14 14:30N 49°28' E 000°13'0 0.0
2018-Aug-14 14:00N 49°28' E 000°13'0 0.0
2018-Aug-14 13:30N 49°28' E 000°13'0 0.0
2018-Aug-14 13:00N 49°28' E 000°13'0 0.0
2018-Aug-14 12:30N 49°28' E 000°13'0 0.0
2018-Aug-14 12:00N 49°28' E 000°13'0 0.0
2018-Aug-14 11:30N 49°28' E 000°13'0 0.0
2018-Aug-14 10:57N 49°28' E 000°13'0 0.0
2018-Aug-14 10:30N 49°28' E 000°13'0 0.0
2018-Aug-14 10:00N 49°28' E 000°13'0 0.0
2018-Aug-14 09:30N 49°28' E 000°13'0 0.0
2018-Aug-14 09:00N 49°28' E 000°13'0 0.0
2018-Aug-14 08:30N 49°28' E 000°13'0 0.0
2018-Aug-14 08:00N 49°28' E 000°13'0 0.0
2018-Aug-14 07:30N 49°28' E 000°13'0 0.0
2018-Aug-14 07:00N 49°28' E 000°13'0 0.0
2018-Aug-14 06:30N 49°28' E 000°13'0 0.0
2018-Aug-14 06:00N 49°28' E 000°13'0 0.0
2018-Aug-14 05:30N 49°28' E 000°13'0 0.0
2018-Aug-14 05:00N 49°28' E 000°13'0 0.0
2018-Aug-14 04:30N 49°28' E 000°13'0 0.0
2018-Aug-14 04:00N 49°28' E 000°13'0 0.0
2018-Aug-14 03:30N 49°28' E 000°13'0 0.7
2018-Aug-14 03:00N 49°28' E 000°12'1 2.2
2018-Aug-14 02:30N 49°29' E 000°10'1 1.6
2018-Aug-14 02:00N 49°28' E 000°09'4 8.6
2018-Aug-14 01:31N 49°30' E 000°03'815.6
2018-Aug-14 01:01N 49°32' W 000°09'4 8.8
2018-Aug-14 00:30N 49°33' W 000°15'611.7
2018-Aug-14 00:00N 49°37' W 000°21'713.2
2018-Aug-13 23:30N 49°44' W 000°24'613.0
2018-Aug-13 23:00N 49°50' W 000°27'713.6
2018-Aug-13 22:31N 49°56' W 000°30'713.5
2018-Aug-13 22:00N 50°03' W 000°32'713.7
2018-Aug-13 21:30N 50°10' W 000°35'713.3
2018-Aug-13 21:00N 50°15' W 000°40'2211.1
2018-Aug-13 18:59N 50°27' W 000°10'1016.7
2018-Aug-13 18:24N 50°29' E 000°05'817.2
2018-Aug-13 17:57N 50°32' E 000°16'817.2
2018-Aug-13 17:30N 50°34' E 000°28'816.7
2018-Aug-13 17:00N 50°37' E 000°40'816.6
2018-Aug-13 16:30N 50°43' E 000°49'816.7
2018-Aug-13 16:00N 50°48' E 000°60'816.6
2018-Aug-13 15:30N 50°54' E 001°09'816.7
2018-Aug-13 15:00N 51°00' E 001°18'815.5
2018-Aug-13 14:30N 51°05' E 001°28'714.5
2018-Aug-13 14:00N 51°09' E 001°37'714.4
2018-Aug-13 13:30N 51°13' E 001°47'714.0
2018-Aug-13 13:00N 51°19' E 001°53'815.0
2018-Aug-13 12:31N 51°25' E 001°60'816.0
2018-Aug-13 12:00N 51°31' E 002°08'917.0
2018-Aug-13 11:30N 51°38' E 002°16'918.1
2018-Aug-13 10:59N 51°45' E 002°26'4618.7
2018-Aug-13 08:31N 52°22' E 003°12'018.1
2018-Aug-13 08:30N 52°22' E 003°12'918.3
2018-Aug-13 07:59N 52°30' E 003°21'917.9
2018-Aug-13 07:30N 52°37' E 003°29'917.1
2018-Aug-13 07:00N 52°44' E 003°38'917.1
2018-Aug-13 06:29N 52°50' E 003°47'816.6
2018-Aug-13 06:00N 52°56' E 003°56'816.2
2018-Aug-13 05:30N 53°02' E 004°06'816.2
2018-Aug-13 04:59N 53°07' E 004°17'815.8
2018-Aug-13 04:30N 53°13' E 004°25'816.0
2018-Aug-13 04:00N 53°20' E 004°31'817.1
2018-Aug-13 03:30N 53°28' E 004°38'1118.7
2018-Aug-13 02:54N 53°32' E 004°56'819.2
2018-Aug-13 02:30N 53°35' E 005°07'919.3
2018-Aug-13 02:00N 53°39' E 005°22'1019.1
2018-Aug-13 01:30N 53°42' E 005°37'918.8
2018-Aug-13 01:00N 53°44' E 005°53'5117.6
2018-Aug-12 22:07N 53°57' E 007°16'516.7
2018-Aug-12 21:49N 53°58' E 007°24'516.0
2018-Aug-12 21:31N 53°59' E 007°32'713.3
2018-Aug-12 21:00N 53°56' E 007°43'713.2
2018-Aug-12 20:30N 53°52' E 007°52'612.0
2018-Aug-12 20:00N 53°51' E 008°02'815.4
2018-Aug-12 19:30N 53°46' E 008°12'816.6
2018-Aug-12 19:00N 53°40' E 008°22'815.3
2018-Aug-12 18:30N 53°35' E 008°31'1 2.6
2018-Aug-12 18:00N 53°34' E 008°33'0 0.0
2018-Aug-12 17:30N 53°34' E 008°33'0 0.9
2018-Aug-12 17:00N 53°35' E 008°33'0 0.0
2018-Aug-12 16:29N 53°35' E 008°33'0 0.0
2018-Aug-12 15:59N 53°35' E 008°33'0 0.0
2018-Aug-12 15:29N 53°35' E 008°33'0 0.0
2018-Aug-12 14:59N 53°35' E 008°33'0 0.0
2018-Aug-12 14:30N 53°35' E 008°33'0 0.0
2018-Aug-12 13:59N 53°35' E 008°33'0 0.0
2018-Aug-12 13:30N 53°35' E 008°33'0 0.0
2018-Aug-12 13:00N 53°35' E 008°33'0 0.0
2018-Aug-12 12:29N 53°35' E 008°33'0 0.0
2018-Aug-12 11:59N 53°35' E 008°33'0 0.0
2018-Aug-12 11:29N 53°35' E 008°33'0 0.0
2018-Aug-12 11:00N 53°35' E 008°33'0 0.0
2018-Aug-12 10:30N 53°35' E 008°33'0 0.0
2018-Aug-12 09:59N 53°35' E 008°33'0 0.0
2018-Aug-12 09:29N 53°35' E 008°33'0 0.0
2018-Aug-12 08:59N 53°35' E 008°33'0 0.0
2018-Aug-12 08:29N 53°35' E 008°33'0 0.0
2018-Aug-12 07:58N 53°35' E 008°33'0 0.0
2018-Aug-12 07:28N 53°35' E 008°33'0 0.0
2018-Aug-12 06:58N 53°35' E 008°33'0 0.0
2018-Aug-12 06:28N 53°35' E 008°33'0 0.0
2018-Aug-12 05:58N 53°35' E 008°33'0 0.0
2018-Aug-12 05:31N 53°35' E 008°33'0 0.0
2018-Aug-12 04:58N 53°35' E 008°33'0 0.0
2018-Aug-12 04:28N 53°35' E 008°33'0 0.0
2018-Aug-12 03:58N 53°35' E 008°33'0 0.0
2018-Aug-12 03:28N 53°35' E 008°33'0 0.0
2018-Aug-12 02:58N 53°35' E 008°33'0 0.0
2018-Aug-12 02:27N 53°35' E 008°33'0 0.0
2018-Aug-12 01:58N 53°35' E 008°33'0 0.0
2018-Aug-12 01:31N 53°35' E 008°33'0 0.0
2018-Aug-12 00:57N 53°35' E 008°33'0 0.0
2018-Aug-12 00:28N 53°35' E 008°33'0 0.0
2018-Aug-11 23:58N 53°35' E 008°33'0 0.0
2018-Aug-11 23:28N 53°35' E 008°33'0 0.0
2018-Aug-11 22:58N 53°35' E 008°33'0 0.0
2018-Aug-11 22:28N 53°35' E 008°33'0 0.0
2018-Aug-11 21:58N 53°35' E 008°33'0 0.0
2018-Aug-11 21:28N 53°35' E 008°33'0 0.0
2018-Aug-11 20:57N 53°35' E 008°33'0 0.0
2018-Aug-11 20:31N 53°35' E 008°33'0 0.0
2018-Aug-11 19:58N 53°35' E 008°33'0 0.0
2018-Aug-11 19:30N 53°35' E 008°33'0 0.0
2018-Aug-11 19:01N 53°35' E 008°33'0 0.0
2018-Aug-11 18:31N 53°35' E 008°33'0 0.0
2018-Aug-11 17:58N 53°35' E 008°33'0 0.0
2018-Aug-11 17:30N 53°35' E 008°33'0 0.0
2018-Aug-11 16:57N 53°35' E 008°33'0 0.0
2018-Aug-11 16:30N 53°35' E 008°33'0 0.0
2018-Aug-11 16:01N 53°35' E 008°33'0 0.0
2018-Aug-11 15:28N 53°35' E 008°33'0 0.0
2018-Aug-11 15:00N 53°35' E 008°33'0 0.0
2018-Aug-11 14:27N 53°35' E 008°33'0 0.0
2018-Aug-11 13:57N 53°35' E 008°33'0 0.0
2018-Aug-11 13:30N 53°35' E 008°33'0 0.0
2018-Aug-11 13:00N 53°35' E 008°33'0 0.0
2018-Aug-11 12:28N 53°35' E 008°33'0 0.0
2018-Aug-11 12:00N 53°35' E 008°33'0 0.0
2018-Aug-11 11:30N 53°35' E 008°33'0 0.0
2018-Aug-11 11:00N 53°35' E 008°33'0 0.0
2018-Aug-11 10:30N 53°35' E 008°33'0 0.0
2018-Aug-11 10:00N 53°35' E 008°33'0 0.0
2018-Aug-11 09:30N 53°35' E 008°33'0 0.0
2018-Aug-11 09:00N 53°35' E 008°33'0 0.0
2018-Aug-11 08:30N 53°35' E 008°33'0 0.0
2018-Aug-11 08:01N 53°35' E 008°33'0 0.0
2018-Aug-11 07:30N 53°35' E 008°33'0 0.0
2018-Aug-11 07:00N 53°35' E 008°33'0 0.0
2018-Aug-11 06:30N 53°35' E 008°33'0 0.0
2018-Aug-11 06:00N 53°35' E 008°33'0 0.0
2018-Aug-11 05:30N 53°35' E 008°33'0 0.0
2018-Aug-11 05:00N 53°35' E 008°33'0 0.0
2018-Aug-11 04:31N 53°35' E 008°33'0 0.0
2018-Aug-11 04:00N 53°35' E 008°33'0 0.0
2018-Aug-11 03:30N 53°35' E 008°33'0 0.9
2018-Aug-11 03:00N 53°34' E 008°33'0 0.7
2018-Aug-11 02:30N 53°34' E 008°33'2 4.9
2018-Aug-11 02:00N 53°36' E 008°31'714.1
2018-Aug-11 01:30N 53°41' E 008°22'715.0
2018-Aug-11 01:00N 53°45' E 008°12'815.2
2018-Aug-11 00:30N 53°51' E 008°03'714.6
2018-Aug-11 00:00N 53°52' E 007°51'80 4.1
2018-Aug-10 04:39N 53°37' E 005°38'215.5
2018-Aug-10 04:29N 53°36' E 005°34'815.6
2018-Aug-10 03:57N 53°33' E 005°21'815.5
2018-Aug-10 03:28N 53°30' E 005°09'815.4
2018-Aug-10 02:58N 53°27' E 004°57'1015.1
2018-Aug-10 02:20N 53°23' E 004°43'514.6
2018-Aug-10 02:00N 53°19' E 004°39'714.3
2018-Aug-10 01:31N 53°13' E 004°33'814.0
2018-Aug-10 00:58N 53°06' E 004°27'613.8
2018-Aug-10 00:30N 53°01' E 004°21'713.3
2018-Aug-10 00:00N 52°55' E 004°17'713.2
2018-Aug-09 23:28N 52°49' E 004°11'613.2
2018-Aug-09 23:00N 52°44' E 004°04'713.2
2018-Aug-09 22:28N 52°40' E 003°55'612.6
2018-Aug-09 22:00N 52°34' E 003°50'613.0
2018-Aug-09 21:30N 52°30' E 003°43'612.7
2018-Aug-09 21:00N 52°26' E 003°35'612.6
2018-Aug-09 20:30N 52°21' E 003°28'612.3
2018-Aug-09 20:00N 52°16' E 003°22'612.2
2018-Aug-09 19:28N 52°12' E 003°14'3312.0
2018-Aug-09 16:42N 51°45' E 002°42'313.2
2018-Aug-09 16:28N 51°42' E 002°40'612.9
2018-Aug-09 16:00N 51°36' E 002°42'713.1
2018-Aug-09 15:30N 51°30' E 002°41'612.9
2018-Aug-09 15:00N 51°24' E 002°43'611.8
2018-Aug-09 14:30N 51°23' E 002°52'815.0
2018-Aug-09 14:00N 51°25' E 003°04'712.7
2018-Aug-09 13:29N 51°21' E 003°12'1 1.7
2018-Aug-09 13:00N 51°20' E 003°13'0 0.2
2018-Aug-09 12:30N 51°20' E 003°13'1 2.1
2018-Aug-09 11:59N 51°19' E 003°14'0 0.0
2018-Aug-09 11:29N 51°19' E 003°14'0 0.0
2018-Aug-09 10:57N 51°19' E 003°14'0 0.0
2018-Aug-09 10:27N 51°19' E 003°14'0 0.0
2018-Aug-09 09:59N 51°19' E 003°14'0 0.0
2018-Aug-09 09:26N 51°19' E 003°14'0 0.0
2018-Aug-09 08:56N 51°19' E 003°14'0 0.0
2018-Aug-09 08:30N 51°19' E 003°14'0 0.0
2018-Aug-09 07:59N 51°19' E 003°14'0 0.0
2018-Aug-09 07:30N 51°19' E 003°14'0 0.0
2018-Aug-09 06:57N 51°19' E 003°14'0 0.0
2018-Aug-09 06:27N 51°19' E 003°14'0 0.0
2018-Aug-09 06:00N 51°19' E 003°14'0 0.0
2018-Aug-09 05:30N 51°19' E 003°14'0 0.0
2018-Aug-09 04:59N 51°19' E 003°14'0 0.0
2018-Aug-09 04:29N 51°19' E 003°14'0 0.0
2018-Aug-09 03:59N 51°19' E 003°14'0 0.0
2018-Aug-09 03:26N 51°19' E 003°14'0 0.0
2018-Aug-09 02:59N 51°19' E 003°14'0 0.0
2018-Aug-09 02:30N 51°19' E 003°14'0 0.0
2018-Aug-09 01:59N 51°19' E 003°14'0 0.0
2018-Aug-09 01:30N 51°19' E 003°14'0 0.0
2018-Aug-09 00:59N 51°19' E 003°14'0 0.0
2018-Aug-09 00:29N 51°19' E 003°14'0 0.0
2018-Aug-09 00:00N 51°19' E 003°14'0 0.0
2018-Aug-08 23:29N 51°19' E 003°14'0 0.0
2018-Aug-08 22:56N 51°19' E 003°14'0 0.0
2018-Aug-08 22:29N 51°19' E 003°14'0 0.0
2018-Aug-08 21:59N 51°19' E 003°14'0 0.0
2018-Aug-08 21:29N 51°19' E 003°14'0 0.0
2018-Aug-08 20:56N 51°19' E 003°14'0 0.0
2018-Aug-08 20:29N 51°19' E 003°14'0 0.0
2018-Aug-08 19:59N 51°19' E 003°14'0 0.0
2018-Aug-08 19:29N 51°19' E 003°14'0 0.0
2018-Aug-08 18:59N 51°19' E 003°14'0 0.0
2018-Aug-08 18:29N 51°19' E 003°14'0 0.0
2018-Aug-08 17:53N 51°19' E 003°14'0 0.0
2018-Aug-08 17:26N 51°19' E 003°14'0 0.0
2018-Aug-08 17:00N 51°19' E 003°14'0 0.0
2018-Aug-08 16:29N 51°19' E 003°14'0 0.0
2018-Aug-08 15:56N 51°19' E 003°14'0 0.0
2018-Aug-08 15:23N 51°19' E 003°14'0 0.0
2018-Aug-08 14:59N 51°19' E 003°14'0 0.0
2018-Aug-08 14:29N 51°19' E 003°14'0 0.0
2018-Aug-08 13:59N 51°19' E 003°14'0 0.0
2018-Aug-08 13:29N 51°19' E 003°14'0 0.0
2018-Aug-08 12:56N 51°19' E 003°14'0 0.0
2018-Aug-08 12:26N 51°19' E 003°14'0 0.0
2018-Aug-08 11:51N 51°19' E 003°14'0 0.0
2018-Aug-08 11:26N 51°19' E 003°14'0 0.0
2018-Aug-08 10:59N 51°19' E 003°14'0 0.0
2018-Aug-08 10:29N 51°19' E 003°14'0 0.0
2018-Aug-08 09:59N 51°19' E 003°14'0 0.0
2018-Aug-08 09:29N 51°19' E 003°14'0 0.0
2018-Aug-08 09:00N 51°19' E 003°14'0 0.0
2018-Aug-08 08:26N 51°19' E 003°14'0 0.0
2018-Aug-08 07:53N 51°19' E 003°14'0 0.0
2018-Aug-08 07:26N 51°19' E 003°14'0 0.0
2018-Aug-08 06:56N 51°19' E 003°14'0 0.0
2018-Aug-08 06:29N 51°19' E 003°14'0 0.0
2018-Aug-08 05:56N 51°19' E 003°14'0 0.0
2018-Aug-08 05:29N 51°19' E 003°14'0 0.0
2018-Aug-08 04:59N 51°19' E 003°14'0 0.0
2018-Aug-08 04:26N 51°19' E 003°14'0 0.0
2018-Aug-08 03:56N 51°19' E 003°14'0 0.0
2018-Aug-08 03:26N 51°19' E 003°14'0 0.0
2018-Aug-08 02:59N 51°19' E 003°14'0 0.0
2018-Aug-08 02:29N 51°19' E 003°14'0 0.0
2018-Aug-08 01:56N 51°19' E 003°14'0 0.0
2018-Aug-08 01:29N 51°19' E 003°14'0 0.0
2018-Aug-08 00:56N 51°19' E 003°14'0 0.0
2018-Aug-08 00:29N 51°19' E 003°14'0 0.0
2018-Aug-07 23:56N 51°19' E 003°14'0 0.0
2018-Aug-07 23:29N 51°19' E 003°14'0 0.0
2018-Aug-07 22:59N 51°19' E 003°14'0 0.0
2018-Aug-07 22:29N 51°19' E 003°14'0 0.0
2018-Aug-07 21:59N 51°19' E 003°14'0 0.1
2018-Aug-07 21:30N 51°19' E 003°13'1 2.2
2018-Aug-07 21:00N 51°20' E 003°13'0 0.0
2018-Aug-07 20:30N 51°20' E 003°13'1 2.1
2018-Aug-07 20:00N 51°21' E 003°12'612.9
2018-Aug-07 19:30N 51°24' E 003°03'917.1
2018-Aug-07 19:00N 51°22' E 002°50'713.5
2018-Aug-07 18:30N 51°22' E 002°39'713.8
2018-Aug-07 18:00N 51°22' E 002°28'510.9
2018-Aug-07 17:30N 51°19' E 002°21'713.0
2018-Aug-07 17:00N 51°16' E 002°12'713.4
2018-Aug-07 16:30N 51°13' E 002°02'713.1
2018-Aug-07 16:00N 51°10' E 001°53'612.7
2018-Aug-07 15:30N 51°06' E 001°45'713.0
2018-Aug-07 15:00N 51°01' E 001°38'612.7
2018-Aug-07 14:30N 50°56' E 001°32'612.2
2018-Aug-07 14:00N 50°51' E 001°27'612.1
2018-Aug-07 13:30N 50°45' E 001°23'612.3
2018-Aug-07 13:00N 50°40' E 001°17'612.8
2018-Aug-07 12:30N 50°36' E 001°10'713.0
2018-Aug-07 12:00N 50°32' E 001°02'612.7
2018-Aug-07 11:30N 50°29' E 000°53'713.0
2018-Aug-07 11:00N 50°27' E 000°43'612.8
2018-Aug-07 10:30N 50°25' E 000°34'612.8
2018-Aug-07 10:00N 50°23' E 000°24'612.7
2018-Aug-07 09:30N 50°21' E 000°15'612.8
2018-Aug-07 09:00N 50°20' E 000°05'713.1
2018-Aug-07 08:30N 50°18' W 000°05'713.1
2018-Aug-07 08:00N 50°17' W 000°15'713.0
2018-Aug-07 07:30N 50°15' W 000°25'713.4
2018-Aug-07 07:00N 50°13' W 000°35'713.5
2018-Aug-07 06:30N 50°12' W 000°45'713.9
2018-Aug-07 06:01N 50°10' W 000°56'714.3
2018-Aug-07 05:30N 50°08' W 001°07'714.0
2018-Aug-07 05:01N 50°06' W 001°17'714.4
2018-Aug-07 04:30N 50°04' W 001°28'714.6
2018-Aug-07 04:00N 50°02' W 001°39'715.0
2018-Aug-07 03:31N 50°00' W 001°50'815.3
2018-Aug-07 03:01N 49°59' W 002°01'815.0
2018-Aug-07 02:31N 49°57' W 002°13'714.6
2018-Aug-07 02:00N 49°55' W 002°24'714.7
2018-Aug-07 01:30N 49°53' W 002°35'714.9
2018-Aug-07 01:00N 49°51' W 002°46'815.2
2018-Aug-07 00:30N 49°49' W 002°57'714.9
2018-Aug-07 00:01N 49°46' W 003°08'814.9
2018-Aug-06 23:30N 49°44' W 003°19'714.9
2018-Aug-06 23:00N 49°42' W 003°30'814.9
2018-Aug-06 22:30N 49°40' W 003°41'714.7
2018-Aug-06 22:00N 49°39' W 003°52'714.7
2018-Aug-06 21:30N 49°38' W 004°04'714.5
2018-Aug-06 21:00N 49°36' W 004°14'714.6
2018-Aug-06 20:30N 49°34' W 004°25'714.7
2018-Aug-06 20:00N 49°32' W 004°36'  
Track history (hours):
 
Tides and Currents Weather Stations Pressure Air Temp Water Temp Dewpoint Dewpoint Depression Visibility Wind Speed Wind Dir Waves Ship Positions

Titania

Last reported at 2018-Aug-16 20:00 UTC. Time now 2018-Aug-16 20:18 UTC.
Position N 50°53' W 001°24'.

Length 231 m; draft 9.8 m.

Type: Cargo ship. MMSI: 248225000.

Date/timePositionNaut miles runAvg speedWind from/ knotsBaromVisibWave heightAir tempDewpointWater temp
2018-Aug-16 20:00N 50°53' W 001°24'0 0.0
2018-Aug-16 19:30N 50°53' W 001°24'0 0.0
2018-Aug-16 18:59N 50°53' W 001°24'0 0.0
2018-Aug-16 18:29N 50°53' W 001°24'0 0.0
2018-Aug-16 17:59N 50°53' W 001°24'0 0.0
2018-Aug-16 17:29N 50°53' W 001°24'0 0.0
2018-Aug-16 16:59N 50°53' W 001°24'0 0.0
2018-Aug-16 16:26N 50°53' W 001°24'0 0.0
2018-Aug-16 15:59N 50°53' W 001°24'0 0.0
2018-Aug-16 15:29N 50°53' W 001°24'0 0.0
2018-Aug-16 14:59N 50°53' W 001°24'0 0.0
2018-Aug-16 14:30N 50°53' W 001°24'0 0.0
2018-Aug-16 13:59N 50°53' W 001°24'0 0.0
2018-Aug-16 13:29N 50°53' W 001°24'0 0.0
2018-Aug-16 12:59N 50°53' W 001°24'0 0.0
2018-Aug-16 12:29N 50°53' W 001°24'0 0.0
2018-Aug-16 11:59N 50°53' W 001°24'0 0.0
2018-Aug-16 11:29N 50°53' W 001°24'0 0.0
2018-Aug-16 10:59N 50°53' W 001°24'0 0.0
2018-Aug-16 10:29N 50°53' W 001°24'0 0.0
2018-Aug-16 09:59N 50°53' W 001°24'0 0.0
2018-Aug-16 09:29N 50°53' W 001°24'0 0.0
2018-Aug-16 08:59N 50°53' W 001°24'0 0.0
2018-Aug-16 08:29N 50°53' W 001°24'0 0.0
2018-Aug-16 07:59N 50°53' W 001°24'0 0.0
2018-Aug-16 07:29N 50°53' W 001°24'0 0.0
2018-Aug-16 06:59N 50°53' W 001°24'0 0.0
2018-Aug-16 06:29N 50°53' W 001°24'0 0.0
2018-Aug-16 05:59N 50°53' W 001°24'0 0.0
2018-Aug-16 05:29N 50°53' W 001°24'0 0.0
2018-Aug-16 04:59N 50°53' W 001°24'0 0.0
2018-Aug-16 04:29N 50°53' W 001°24'1 1.3
2018-Aug-16 04:00N 50°53' W 001°23'4 8.1
2018-Aug-16 03:31N 50°50' W 001°19'4 8.9
2018-Aug-16 03:00N 50°46' W 001°15'816.7
2018-Aug-16 02:30N 50°44' W 001°02'611.6
2018-Aug-16 02:00N 50°39' W 000°56'4 7.1
2018-Aug-16 01:30N 50°36' W 000°54'510.9
2018-Aug-16 01:00N 50°31' W 000°51'910.1
2018-Aug-16 00:05N 50°22' W 000°45'110.0
2018-Aug-15 23:59N 50°21' W 000°45'510.3
2018-Aug-15 23:27N 50°16' W 000°42'510.2
2018-Aug-15 22:59N 50°12' W 000°39'510.3
2018-Aug-15 22:30N 50°07' W 000°37'510.2
2018-Aug-15 22:00N 50°02' W 000°34'510.3
2018-Aug-15 21:30N 49°57' W 000°31'510.2
2018-Aug-15 21:00N 49°52' W 000°30'5 9.8
2018-Aug-15 20:30N 49°47' W 000°31'3 6.4
2018-Aug-15 20:00N 49°45' W 000°33'3 5.5
2018-Aug-15 19:30N 49°42' W 000°35'2 4.0
2018-Aug-15 19:00N 49°40' W 000°33'1 2.2
2018-Aug-15 18:30N 49°40' W 000°32'1 2.9
2018-Aug-15 18:01N 49°39' W 000°30'1 2.9
2018-Aug-15 17:30N 49°38' W 000°28'1 2.7
2018-Aug-15 17:00N 49°38' W 000°26'1 2.1
2018-Aug-15 16:30N 49°37' W 000°25'1 1.8
2018-Aug-15 16:01N 49°36' W 000°24'1 2.7
2018-Aug-15 15:31N 49°36' W 000°22'2 3.1
2018-Aug-15 15:00N 49°35' W 000°20'611.5
2018-Aug-15 14:30N 49°33' W 000°12'611.6
2018-Aug-15 14:00N 49°31' W 000°03'714.2
2018-Aug-15 13:30N 49°29' E 000°07'2 4.3
2018-Aug-15 13:00N 49°29' E 000°10'0 0.0
2018-Aug-15 12:30N 49°29' E 000°10'0 0.0
2018-Aug-15 12:00N 49°29' E 000°10'1 2.3
2018-Aug-15 11:30N 49°28' E 000°12'0 0.8
2018-Aug-15 11:00N 49°28' E 000°13'0 0.0
2018-Aug-15 10:30N 49°28' E 000°13'0 0.0
2018-Aug-15 10:00N 49°28' E 000°13'0 0.0
2018-Aug-15 09:30N 49°28' E 000°13'0 0.0
2018-Aug-15 09:00N 49°28' E 000°13'0 0.0
2018-Aug-15 08:30N 49°28' E 000°13'0 0.0
2018-Aug-15 08:00N 49°28' E 000°13'0 0.0
2018-Aug-15 07:30N 49°28' E 000°13'0 0.0
2018-Aug-15 07:00N 49°28' E 000°13'0 0.0
2018-Aug-15 06:30N 49°28' E 000°13'0 0.0
2018-Aug-15 06:00N 49°28' E 000°13'0 0.0
2018-Aug-15 05:30N 49°28' E 000°13'0 0.0
2018-Aug-15 05:00N 49°28' E 000°13'0 0.0
2018-Aug-15 04:30N 49°28' E 000°13'0 0.0
2018-Aug-15 04:00N 49°28' E 000°13'0 0.0
2018-Aug-15 03:30N 49°28' E 000°13'0 0.0
2018-Aug-15 03:00N 49°28' E 000°13'0 0.0
2018-Aug-15 02:30N 49°28' E 000°13'0 0.0
2018-Aug-15 02:00N 49°28' E 000°13'0 0.0
2018-Aug-15 01:30N 49°28' E 000°13'0 0.0
2018-Aug-15 01:00N 49°28' E 000°13'0 0.0
2018-Aug-15 00:30N 49°28' E 000°13'0 0.0
2018-Aug-15 00:00N 49°28' E 000°13'0 0.0
2018-Aug-14 23:30N 49°28' E 000°13'0 0.0
2018-Aug-14 23:00N 49°28' E 000°13'0 0.0
2018-Aug-14 22:30N 49°28' E 000°13'0 0.0
2018-Aug-14 22:00N 49°28' E 000°13'0 0.0
2018-Aug-14 21:30N 49°28' E 000°13'0 0.0
2018-Aug-14 21:00N 49°28' E 000°13'0 0.0
2018-Aug-14 20:30N 49°28' E 000°13'0 0.0
2018-Aug-14 20:00N 49°28' E 000°13'0 0.0
2018-Aug-14 19:30N 49°28' E 000°13'0 0.0
2018-Aug-14 19:00N 49°28' E 000°13'0 0.0
2018-Aug-14 18:30N 49°28' E 000°13'0 0.0
2018-Aug-14 18:00N 49°28' E 000°13'0 0.0
2018-Aug-14 17:30N 49°28' E 000°13'0 0.0
2018-Aug-14 17:00N 49°28' E 000°13'0 0.0
2018-Aug-14 16:30N 49°28' E 000°13'0 0.0
2018-Aug-14 16:00N 49°28' E 000°13'0 0.0
2018-Aug-14 15:30N 49°28' E 000°13'0 0.0
2018-Aug-14 15:00N 49°28' E 000°13'0 0.0
2018-Aug-14 14:30N 49°28' E 000°13'0 0.0
2018-Aug-14 14:00N 49°28' E 000°13'0 0.0
2018-Aug-14 13:30N 49°28' E 000°13'0 0.0
2018-Aug-14 13:00N 49°28' E 000°13'0 0.0
2018-Aug-14 12:30N 49°28' E 000°13'0 0.0
2018-Aug-14 12:00N 49°28' E 000°13'0 0.0
2018-Aug-14 11:30N 49°28' E 000°13'0 0.0
2018-Aug-14 10:57N 49°28' E 000°13'0 0.0
2018-Aug-14 10:30N 49°28' E 000°13'0 0.0
2018-Aug-14 10:00N 49°28' E 000°13'0 0.0
2018-Aug-14 09:30N 49°28' E 000°13'0 0.0
2018-Aug-14 09:00N 49°28' E 000°13'0 0.0
2018-Aug-14 08:30N 49°28' E 000°13'0 0.0
2018-Aug-14 08:00N 49°28' E 000°13'0 0.0
2018-Aug-14 07:30N 49°28' E 000°13'0 0.0
2018-Aug-14 07:00N 49°28' E 000°13'0 0.0
2018-Aug-14 06:30N 49°28' E 000°13'0 0.0
2018-Aug-14 06:00N 49°28' E 000°13'0 0.0
2018-Aug-14 05:30N 49°28' E 000°13'0 0.0
2018-Aug-14 05:00N 49°28' E 000°13'0 0.0
2018-Aug-14 04:30N 49°28' E 000°13'0 0.0
2018-Aug-14 04:00N 49°28' E 000°13'0 0.0
2018-Aug-14 03:30N 49°28' E 000°13'0 0.7
2018-Aug-14 03:00N 49°28' E 000°12'1 2.2
2018-Aug-14 02:30N 49°29' E 000°10'1 1.6
2018-Aug-14 02:00N 49°28' E 000°09'4 8.6
2018-Aug-14 01:31N 49°30' E 000°03'815.6
2018-Aug-14 01:01N 49°32' W 000°09'4 8.8
2018-Aug-14 00:30N 49°33' W 000°15'611.7
2018-Aug-14 00:00N 49°37' W 000°21'713.2
2018-Aug-13 23:30N 49°44' W 000°24'613.0
2018-Aug-13 23:00N 49°50' W 000°27'713.6
2018-Aug-13 22:31N 49°56' W 000°30'713.5
2018-Aug-13 22:00N 50°03' W 000°32'713.7
2018-Aug-13 21:30N 50°10' W 000°35'713.3
2018-Aug-13 21:00N 50°15' W 000°40'2211.1
2018-Aug-13 18:59N 50°27' W 000°10'1016.7
2018-Aug-13 18:24N 50°29' E 000°05'817.2
2018-Aug-13 17:57N 50°32' E 000°16'817.2
2018-Aug-13 17:30N 50°34' E 000°28'816.7
2018-Aug-13 17:00N 50°37' E 000°40'816.6
2018-Aug-13 16:30N 50°43' E 000°49'816.7
2018-Aug-13 16:00N 50°48' E 000°60'816.6
2018-Aug-13 15:30N 50°54' E 001°09'816.7
2018-Aug-13 15:00N 51°00' E 001°18'815.5
2018-Aug-13 14:30N 51°05' E 001°28'714.5
2018-Aug-13 14:00N 51°09' E 001°37'714.4
2018-Aug-13 13:30N 51°13' E 001°47'714.0
2018-Aug-13 13:00N 51°19' E 001°53'815.0
2018-Aug-13 12:31N 51°25' E 001°60'816.0
2018-Aug-13 12:00N 51°31' E 002°08'917.0
2018-Aug-13 11:30N 51°38' E 002°16'918.1
2018-Aug-13 10:59N 51°45' E 002°26'4618.7
2018-Aug-13 08:31N 52°22' E 003°12'018.1
2018-Aug-13 08:30N 52°22' E 003°12'918.3
2018-Aug-13 07:59N 52°30' E 003°21'917.9
2018-Aug-13 07:30N 52°37' E 003°29'917.1
2018-Aug-13 07:00N 52°44' E 003°38'917.1
2018-Aug-13 06:29N 52°50' E 003°47'816.6
2018-Aug-13 06:00N 52°56' E 003°56'816.2
2018-Aug-13 05:30N 53°02' E 004°06'816.2
2018-Aug-13 04:59N 53°07' E 004°17'815.8
2018-Aug-13 04:30N 53°13' E 004°25'816.0
2018-Aug-13 04:00N 53°20' E 004°31'817.1
2018-Aug-13 03:30N 53°28' E 004°38'1118.7
2018-Aug-13 02:54N 53°32' E 004°56'819.2
2018-Aug-13 02:30N 53°35' E 005°07'919.3
2018-Aug-13 02:00N 53°39' E 005°22'1019.1
2018-Aug-13 01:30N 53°42' E 005°37'918.8
2018-Aug-13 01:00N 53°44' E 005°53'5117.6
2018-Aug-12 22:07N 53°57' E 007°16'516.7
2018-Aug-12 21:49N 53°58' E 007°24'516.0
2018-Aug-12 21:31N 53°59' E 007°32'713.3
2018-Aug-12 21:00N 53°56' E 007°43'713.2
2018-Aug-12 20:30N 53°52' E 007°52'612.0
2018-Aug-12 20:00N 53°51' E 008°02'815.4
2018-Aug-12 19:30N 53°46' E 008°12'816.6
2018-Aug-12 19:00N 53°40' E 008°22'815.3
2018-Aug-12 18:30N 53°35' E 008°31'1 2.6
2018-Aug-12 18:00N 53°34' E 008°33'0 0.0
2018-Aug-12 17:30N 53°34' E 008°33'0 0.9
2018-Aug-12 17:00N 53°35' E 008°33'0 0.0
2018-Aug-12 16:29N 53°35' E 008°33'0 0.0
2018-Aug-12 15:59N 53°35' E 008°33'0 0.0
2018-Aug-12 15:29N 53°35' E 008°33'0 0.0
2018-Aug-12 14:59N 53°35' E 008°33'0 0.0
2018-Aug-12 14:30N 53°35' E 008°33'0 0.0
2018-Aug-12 13:59N 53°35' E 008°33'0 0.0
2018-Aug-12 13:30N 53°35' E 008°33'0 0.0
2018-Aug-12 13:00N 53°35' E 008°33'0 0.0
2018-Aug-12 12:29N 53°35' E 008°33'0 0.0
2018-Aug-12 11:59N 53°35' E 008°33'0 0.0
2018-Aug-12 11:29N 53°35' E 008°33'0 0.0
2018-Aug-12 11:00N 53°35' E 008°33'0 0.0
2018-Aug-12 10:30N 53°35' E 008°33'0 0.0
2018-Aug-12 09:59N 53°35' E 008°33'0 0.0
2018-Aug-12 09:29N 53°35' E 008°33'0 0.0
2018-Aug-12 08:59N 53°35' E 008°33'0 0.0
2018-Aug-12 08:29N 53°35' E 008°33'0 0.0
2018-Aug-12 07:58N 53°35' E 008°33'0 0.0
2018-Aug-12 07:28N 53°35' E 008°33'0 0.0
2018-Aug-12 06:58N 53°35' E 008°33'0 0.0
2018-Aug-12 06:28N 53°35' E 008°33'0 0.0
2018-Aug-12 05:58N 53°35' E 008°33'0 0.0
2018-Aug-12 05:31N 53°35' E 008°33'0 0.0
2018-Aug-12 04:58N 53°35' E 008°33'0 0.0
2018-Aug-12 04:28N 53°35' E 008°33'0 0.0
2018-Aug-12 03:58N 53°35' E 008°33'0 0.0
2018-Aug-12 03:28N 53°35' E 008°33'0 0.0
2018-Aug-12 02:58N 53°35' E 008°33'0 0.0
2018-Aug-12 02:27N 53°35' E 008°33'0 0.0
2018-Aug-12 01:58N 53°35' E 008°33'0 0.0
2018-Aug-12 01:31N 53°35' E 008°33'0 0.0
2018-Aug-12 00:57N 53°35' E 008°33'0 0.0
2018-Aug-12 00:28N 53°35' E 008°33'0 0.0
2018-Aug-11 23:58N 53°35' E 008°33'0 0.0
2018-Aug-11 23:28N 53°35' E 008°33'0 0.0
2018-Aug-11 22:58N 53°35' E 008°33'0 0.0
2018-Aug-11 22:28N 53°35' E 008°33'0 0.0
2018-Aug-11 21:58N 53°35' E 008°33'0 0.0
2018-Aug-11 21:28N 53°35' E 008°33'0 0.0
2018-Aug-11 20:57N 53°35' E 008°33'0 0.0
2018-Aug-11 20:31N 53°35' E 008°33'0 0.0
2018-Aug-11 19:58N 53°35' E 008°33'0 0.0
2018-Aug-11 19:30N 53°35' E 008°33'0 0.0
2018-Aug-11 19:01N 53°35' E 008°33'0 0.0
2018-Aug-11 18:31N 53°35' E 008°33'0 0.0
2018-Aug-11 17:58N 53°35' E 008°33'0 0.0
2018-Aug-11 17:30N 53°35' E 008°33'0 0.0
2018-Aug-11 16:57N 53°35' E 008°33'0 0.0
2018-Aug-11 16:30N 53°35' E 008°33'0 0.0
2018-Aug-11 16:01N 53°35' E 008°33'0 0.0
2018-Aug-11 15:28N 53°35' E 008°33'0 0.0
2018-Aug-11 15:00N 53°35' E 008°33'0 0.0
2018-Aug-11 14:27N 53°35' E 008°33'0 0.0
2018-Aug-11 13:57N 53°35' E 008°33'0 0.0
2018-Aug-11 13:30N 53°35' E 008°33'0 0.0
2018-Aug-11 13:00N 53°35' E 008°33'0 0.0
2018-Aug-11 12:28N 53°35' E 008°33'0 0.0
2018-Aug-11 12:00N 53°35' E 008°33'0 0.0
2018-Aug-11 11:30N 53°35' E 008°33'0 0.0
2018-Aug-11 11:00N 53°35' E 008°33'0 0.0
2018-Aug-11 10:30N 53°35' E 008°33'0 0.0
2018-Aug-11 10:00N 53°35' E 008°33'0 0.0
2018-Aug-11 09:30N 53°35' E 008°33'0 0.0
2018-Aug-11 09:00N 53°35' E 008°33'0 0.0
2018-Aug-11 08:30N 53°35' E 008°33'0 0.0
2018-Aug-11 08:01N 53°35' E 008°33'0 0.0
2018-Aug-11 07:30N 53°35' E 008°33'0 0.0
2018-Aug-11 07:00N 53°35' E 008°33'0 0.0
2018-Aug-11 06:30N 53°35' E 008°33'0 0.0
2018-Aug-11 06:00N 53°35' E 008°33'0 0.0
2018-Aug-11 05:30N 53°35' E 008°33'0 0.0
2018-Aug-11 05:00N 53°35' E 008°33'0 0.0
2018-Aug-11 04:31N 53°35' E 008°33'0 0.0
2018-Aug-11 04:00N 53°35' E 008°33'0 0.0
2018-Aug-11 03:30N 53°35' E 008°33'0 0.9
2018-Aug-11 03:00N 53°34' E 008°33'0 0.7
2018-Aug-11 02:30N 53°34' E 008°33'2 4.9
2018-Aug-11 02:00N 53°36' E 008°31'714.1
2018-Aug-11 01:30N 53°41' E 008°22'715.0
2018-Aug-11 01:00N 53°45' E 008°12'815.2
2018-Aug-11 00:30N 53°51' E 008°03'714.6
2018-Aug-11 00:00N 53°52' E 007°51'80 4.1
2018-Aug-10 04:39N 53°37' E 005°38'215.5
2018-Aug-10 04:29N 53°36' E 005°34'815.6
2018-Aug-10 03:57N 53°33' E 005°21'815.5
2018-Aug-10 03:28N 53°30' E 005°09'815.4
2018-Aug-10 02:58N 53°27' E 004°57'1015.1
2018-Aug-10 02:20N 53°23' E 004°43'514.6
2018-Aug-10 02:00N 53°19' E 004°39'714.3
2018-Aug-10 01:31N 53°13' E 004°33'814.0
2018-Aug-10 00:58N 53°06' E 004°27'613.8
2018-Aug-10 00:30N 53°01' E 004°21'713.3
2018-Aug-10 00:00N 52°55' E 004°17'713.2
2018-Aug-09 23:28N 52°49' E 004°11'613.2
2018-Aug-09 23:00N 52°44' E 004°04'713.2
2018-Aug-09 22:28N 52°40' E 003°55'612.6
2018-Aug-09 22:00N 52°34' E 003°50'613.0
2018-Aug-09 21:30N 52°30' E 003°43'612.7
2018-Aug-09 21:00N 52°26' E 003°35'612.6
2018-Aug-09 20:30N 52°21' E 003°28'612.3
2018-Aug-09 20:00N 52°16' E 003°22'612.2
2018-Aug-09 19:28N 52°12' E 003°14'3312.0
2018-Aug-09 16:42N 51°45' E 002°42'313.2
2018-Aug-09 16:28N 51°42' E 002°40'612.9
2018-Aug-09 16:00N 51°36' E 002°42'713.1
2018-Aug-09 15:30N 51°30' E 002°41'612.9
2018-Aug-09 15:00N 51°24' E 002°43'611.8
2018-Aug-09 14:30N 51°23' E 002°52'815.0
2018-Aug-09 14:00N 51°25' E 003°04'712.7
2018-Aug-09 13:29N 51°21' E 003°12'1 1.7
2018-Aug-09 13:00N 51°20' E 003°13'0 0.2
2018-Aug-09 12:30N 51°20' E 003°13'1 2.1
2018-Aug-09 11:59N 51°19' E 003°14'0 0.0
2018-Aug-09 11:29N 51°19' E 003°14'0 0.0
2018-Aug-09 10:57N 51°19' E 003°14'0 0.0
2018-Aug-09 10:27N 51°19' E 003°14'0 0.0
2018-Aug-09 09:59N 51°19' E 003°14'0 0.0
2018-Aug-09 09:26N 51°19' E 003°14'0 0.0
2018-Aug-09 08:56N 51°19' E 003°14'0 0.0
2018-Aug-09 08:30N 51°19' E 003°14'0 0.0
2018-Aug-09 07:59N 51°19' E 003°14'0 0.0
2018-Aug-09 07:30N 51°19' E 003°14'0 0.0
2018-Aug-09 06:57N 51°19' E 003°14'0 0.0
2018-Aug-09 06:27N 51°19' E 003°14'0 0.0
2018-Aug-09 06:00N 51°19' E 003°14'0 0.0
2018-Aug-09 05:30N 51°19' E 003°14'0 0.0
2018-Aug-09 04:59N 51°19' E 003°14'0 0.0
2018-Aug-09 04:29N 51°19' E 003°14'0 0.0
2018-Aug-09 03:59N 51°19' E 003°14'0 0.0
2018-Aug-09 03:26N 51°19' E 003°14'0 0.0
2018-Aug-09 02:59N 51°19' E 003°14'0 0.0
2018-Aug-09 02:30N 51°19' E 003°14'0 0.0
2018-Aug-09 01:59N 51°19' E 003°14'0 0.0
2018-Aug-09 01:30N 51°19' E 003°14'0 0.0
2018-Aug-09 00:59N 51°19' E 003°14'0 0.0
2018-Aug-09 00:29N 51°19' E 003°14'0 0.0
2018-Aug-09 00:00N 51°19' E 003°14'0 0.0
2018-Aug-08 23:29N 51°19' E 003°14'0 0.0
2018-Aug-08 22:56N 51°19' E 003°14'0 0.0
2018-Aug-08 22:29N 51°19' E 003°14'0 0.0
2018-Aug-08 21:59N 51°19' E 003°14'0 0.0
2018-Aug-08 21:29N 51°19' E 003°14'0 0.0
2018-Aug-08 20:56N 51°19' E 003°14'0 0.0
2018-Aug-08 20:29N 51°19' E 003°14'0 0.0
2018-Aug-08 19:59N 51°19' E 003°14'0 0.0
2018-Aug-08 19:29N 51°19' E 003°14'0 0.0
2018-Aug-08 18:59N 51°19' E 003°14'0 0.0
2018-Aug-08 18:29N 51°19' E 003°14'0 0.0
2018-Aug-08 17:53N 51°19' E 003°14'0 0.0
2018-Aug-08 17:26N 51°19' E 003°14'0 0.0
2018-Aug-08 17:00N 51°19' E 003°14'0 0.0
2018-Aug-08 16:29N 51°19' E 003°14'0 0.0
2018-Aug-08 15:56N 51°19' E 003°14'0 0.0
2018-Aug-08 15:23N 51°19' E 003°14'0 0.0
2018-Aug-08 14:59N 51°19' E 003°14'0 0.0
2018-Aug-08 14:29N 51°19' E 003°14'0 0.0
2018-Aug-08 13:59N 51°19' E 003°14'0 0.0
2018-Aug-08 13:29N 51°19' E 003°14'0 0.0
2018-Aug-08 12:56N 51°19' E 003°14'0 0.0
2018-Aug-08 12:26N 51°19' E 003°14'0 0.0
2018-Aug-08 11:51N 51°19' E 003°14'0 0.0
2018-Aug-08 11:26N 51°19' E 003°14'0 0.0
2018-Aug-08 10:59N 51°19' E 003°14'0 0.0
2018-Aug-08 10:29N 51°19' E 003°14'0 0.0
2018-Aug-08 09:59N 51°19' E 003°14'0 0.0
2018-Aug-08 09:29N 51°19' E 003°14'0 0.0
2018-Aug-08 09:00N 51°19' E 003°14'0 0.0
2018-Aug-08 08:26N 51°19' E 003°14'0 0.0
2018-Aug-08 07:53N 51°19' E 003°14'0 0.0
2018-Aug-08 07:26N 51°19' E 003°14'0 0.0
2018-Aug-08 06:56N 51°19' E 003°14'0 0.0
2018-Aug-08 06:29N 51°19' E 003°14'0 0.0
2018-Aug-08 05:56N 51°19' E 003°14'0 0.0
2018-Aug-08 05:29N 51°19' E 003°14'0 0.0
2018-Aug-08 04:59N 51°19' E 003°14'0 0.0
2018-Aug-08 04:26N 51°19' E 003°14'0 0.0
2018-Aug-08 03:56N 51°19' E 003°14'0 0.0
2018-Aug-08 03:26N 51°19' E 003°14'0 0.0
2018-Aug-08 02:59N 51°19' E 003°14'0 0.0
2018-Aug-08 02:29N 51°19' E 003°14'0 0.0
2018-Aug-08 01:56N 51°19' E 003°14'0 0.0
2018-Aug-08 01:29N 51°19' E 003°14'0 0.0
2018-Aug-08 00:56N 51°19' E 003°14'0 0.0
2018-Aug-08 00:29N 51°19' E 003°14'0 0.0
2018-Aug-07 23:56N 51°19' E 003°14'0 0.0
2018-Aug-07 23:29N 51°19' E 003°14'0 0.0
2018-Aug-07 22:59N 51°19' E 003°14'0 0.0
2018-Aug-07 22:29N 51°19' E 003°14'0 0.0
2018-Aug-07 21:59N 51°19' E 003°14'0 0.1
2018-Aug-07 21:30N 51°19' E 003°13'1 2.2
2018-Aug-07 21:00N 51°20' E 003°13'0 0.0
2018-Aug-07 20:30N 51°20' E 003°13'1 2.1
2018-Aug-07 20:00N 51°21' E 003°12'612.9
2018-Aug-07 19:30N 51°24' E 003°03'917.1
2018-Aug-07 19:00N 51°22' E 002°50'713.5
2018-Aug-07 18:30N 51°22' E 002°39'713.8
2018-Aug-07 18:00N 51°22' E 002°28'510.9
2018-Aug-07 17:30N 51°19' E 002°21'713.0
2018-Aug-07 17:00N 51°16' E 002°12'713.4
2018-Aug-07 16:30N 51°13' E 002°02'713.1
2018-Aug-07 16:00N 51°10' E 001°53'612.7
2018-Aug-07 15:30N 51°06' E 001°45'713.0
2018-Aug-07 15:00N 51°01' E 001°38'612.7
2018-Aug-07 14:30N 50°56' E 001°32'612.2
2018-Aug-07 14:00N 50°51' E 001°27'612.1
2018-Aug-07 13:30N 50°45' E 001°23'612.3
2018-Aug-07 13:00N 50°40' E 001°17'612.8
2018-Aug-07 12:30N 50°36' E 001°10'713.0
2018-Aug-07 12:00N 50°32' E 001°02'612.7
2018-Aug-07 11:30N 50°29' E 000°53'713.0
2018-Aug-07 11:00N 50°27' E 000°43'612.8
2018-Aug-07 10:30N 50°25' E 000°34'612.8
2018-Aug-07 10:00N 50°23' E 000°24'612.7
2018-Aug-07 09:30N 50°21' E 000°15'612.8
2018-Aug-07 09:00N 50°20' E 000°05'713.1
2018-Aug-07 08:30N 50°18' W 000°05'713.1
2018-Aug-07 08:00N 50°17' W 000°15'713.0
2018-Aug-07 07:30N 50°15' W 000°25'713.4
2018-Aug-07 07:00N 50°13' W 000°35'713.5
2018-Aug-07 06:30N 50°12' W 000°45'713.9
2018-Aug-07 06:01N 50°10' W 000°56'714.3
2018-Aug-07 05:30N 50°08' W 001°07'714.0
2018-Aug-07 05:01N 50°06' W 001°17'714.4
2018-Aug-07 04:30N 50°04' W 001°28'714.6
2018-Aug-07 04:00N 50°02' W 001°39'715.0
2018-Aug-07 03:31N 50°00' W 001°50'815.3
2018-Aug-07 03:01N 49°59' W 002°01'815.0
2018-Aug-07 02:31N 49°57' W 002°13'714.6
2018-Aug-07 02:00N 49°55' W 002°24'714.7
2018-Aug-07 01:30N 49°53' W 002°35'714.9
2018-Aug-07 01:00N 49°51' W 002°46'815.2
2018-Aug-07 00:30N 49°49' W 002°57'714.9
2018-Aug-07 00:01N 49°46' W 003°08'814.9
2018-Aug-06 23:30N 49°44' W 003°19'714.9
2018-Aug-06 23:00N 49°42' W 003°30'814.9
2018-Aug-06 22:30N 49°40' W 003°41'714.7
2018-Aug-06 22:00N 49°39' W 003°52'714.7
2018-Aug-06 21:30N 49°38' W 004°04'714.5
2018-Aug-06 21:00N 49°36' W 004°14'714.6
2018-Aug-06 20:30N 49°34' W 004°25'714.7
2018-Aug-06 20:00N 49°32' W 004°36'  

Dump ship's entire track history